Marr, United Kingdom
Current Conditions -  °F | °C
As of 2:50 AM on Friday 19 Dec 2014 (Local Time) from EGCN Reporting Station
Broken Clouds Broken Clouds  
Wind Chill: 50°   Ceiling: 2700
Heat Index: 50°   Visibility: 6mi
Dew Point: 45°   Wind: 9mph
Humidity: 82%   Direction: 270°W
Pressure: 29.68"   Gusts: NA
Location:  53.54°N, 1.22°W
Report Text: EGCN 190250Z 27008KT 240V310 9999 SCT016 SCT022 BKN027 10/07 Q1005
Loading
Personal Weather Stations






























Interactive Weather Map New forecast layout! Learn more

10-Day Weather Forecast

Advertisements
Track Severe Weather on mobile